Shedd, OR (97377)

7:28 PM PDT on September 02, 2015 (GMT -0700)
Powell Hills | | Change Station
CLOSE
Current Station
Personal Weather Station
Location: Shedd, OR
Elevation: 436 ft
Nearby Weather Stations

Elev 436 ft 44.41 °N, 123.03 °W | Updated 13 seconds ago

Partly Cloudy
Partly Cloudy
62.0 °F
Feels Like 62.0 °F
N
6.3
Wind Variable Wind from NW
Gusts 7.0 mph

Today
High -- | Low -- °F
--% Chance of Precip.
Yesterday
High -- | Low -- °F
Precip. -- in
6:36 AM 7:47 PM
Waning Gibbous, 75% visible
Pressure 29.97 in
Visibility 10.0 miles
Clouds Mostly Cloudy 6500 ft
Dew Point 53 °F
Humidity 71%
Rainfall 0.03 in
Snow Depth Not available.
UV 0 out of 12
Pollen .90 out of 12
Air Quality Not available.
Flu Activity Not available.
METAR KCVO 030215Z 29012KT 10SM BKN065 18/07 A2997 RMK AO1
Pressure 29.97 in
Visibility 10.0 miles
Clouds Mostly Cloudy 6500 ft
Dew Point 53 °F
Humidity 71%
Rainfall 0.03 in
Snow Depth Not available.
UV 0 out of 12
Pollen .90 out of 12
Air Quality Not available.
Flu Activity Not available.
METAR KCVO 030215Z 29012KT 10SM BKN065 18/07 A2997 RMK AO1

10-Day Weather Forecast

×

Almanac

Astronomy

Sep. 02, 2015 Rise Set
Actual Time
Civil Twilight
Nautical Twilight
Astronomical Twilight
Moon
Length of Visible Light
Length of Day
Tomorrow will be .
, % of the Moon is Illuminated

Today's Extremes

State Highs State Lows

Community

WunderPhotos

Upload Photos

1,851,877 photos uploaded!

WunderBlogs® & News

Nearby

Air Quality

  Air Quality AQ Index Pollutant
Not available.

Snow Depth

Station Depth Elevation

Earthquake Activity

City Distance Mag. Time & Date
Minimum magnitude displayed is 2.5.

Coastal Water Temperatures

Place Temperature

Stations

Nearby Weather Stations

Station Location Temp. Windchill Dew Point Humidity Wind Precip. Elev Updated Type